Time;durP1;ratioP1;P1;durP2;ratioP2;P2;SDS_P1;SDS_P2;PMS_P1;PMS_P2;Temp;Humidity;BMP_temperature;BMP_pressure;BME280_temperature;BME280_humidity;BME280_pressure;Samples;Min_cycle;Max_cycle;Signal;HPM_P1;HPM_P2
2023/01/07 00:01:17;;;;;;;4.17;3.93;;;7.50;99.90;;;;;;4988681;28;20317;-69
2023/01/07 00:03:46;;;;;;;4.87;4.47;;;7.40;99.90;;;;;;4988258;28;20297;-69
2023/01/07 00:06:15;;;;;;;4.60;4.30;;;7.40;99.90;;;;;;4988071;28;20226;-69
2023/01/07 00:08:43;;;;;;;4.70;4.37;;;7.50;99.90;;;;;;4988541;28;20232;-69
2023/01/07 00:11:12;;;;;;;4.80;4.50;;;7.50;99.90;;;;;;4987266;28;20302;-69
2023/01/07 00:13:39;;;;;;;4.97;3.80;;;7.50;99.90;;;;;;4987469;28;20212;-69
2023/01/07 00:16:08;;;;;;;4.53;4.23;;;7.50;99.90;;;;;;4987674;28;20337;-69
2023/01/07 00:18:35;;;;;;;4.93;4.53;;;7.60;99.90;;;;;;4987533;28;20296;-69
2023/01/07 00:21:06;;;;;;;4.50;4.20;;;7.60;99.90;;;;;;4988437;28;20325;-69
2023/01/07 00:23:36;;;;;;;4.47;4.17;;;7.50;99.90;;;;;;4988371;28;20209;-69
2023/01/07 00:26:04;;;;;;;4.23;3.93;;;7.50;99.90;;;;;;4988364;28;20572;-69
2023/01/07 00:28:33;;;;;;;3.97;3.77;;;7.50;99.90;;;;;;4988404;28;20293;-69
2023/01/07 00:31:00;;;;;;;4.33;3.87;;;7.60;99.90;;;;;;4987962;28;20217;-69
2023/01/07 00:33:28;;;;;;;4.10;3.87;;;7.50;99.90;;;;;;4987387;28;20288;-70
2023/01/07 00:35:59;;;;;;;4.57;4.10;;;7.60;99.90;;;;;;4988151;28;20213;-70
2023/01/07 00:38:26;;;;;;;4.33;3.90;;;7.50;99.90;;;;;;4987917;28;20233;-70
2023/01/07 00:40:55;;;;;;;4.37;4.07;;;7.50;99.90;;;;;;4987609;28;20807;-70
2023/01/07 00:43:22;;;;;;;3.97;3.67;;;7.60;99.90;;;;;;4987790;28;20237;-70
2023/01/07 00:45:49;;;;;;;3.70;3.50;;;7.50;99.90;;;;;;4982548;28;20709;-70
2023/01/07 00:48:17;;;;;;;3.80;3.50;;;7.50;99.90;;;;;;4968136;28;20298;-69
2023/01/07 00:50:47;;;;;;;4.20;3.90;;;7.50;99.90;;;;;;4967880;28;20290;-69
2023/01/07 00:53:14;;;;;;;4.13;3.83;;;7.60;99.90;;;;;;4973496;28;20293;-70
2023/01/07 00:55:41;;;;;;;4.10;3.43;;;7.60;99.90;;;;;;4987634;28;20571;-69
2023/01/07 00:58:14;;;;;;;4.07;3.77;;;7.60;99.90;;;;;;4988220;28;20305;-70
2023/01/07 01:00:40;;;;;;;4.10;3.80;;;7.60;99.90;;;;;;4987978;28;20568;-69
2023/01/07 01:03:08;;;;;;;4.73;3.97;;;7.60;99.90;;;;;;4987227;28;20206;-70
2023/01/07 01:05:35;;;;;;;3.90;3.60;;;7.60;99.90;;;;;;4987949;28;20298;-70
2023/01/07 01:08:02;;;;;;;4.00;3.63;;;7.50;99.90;;;;;;4987950;28;20237;-70
2023/01/07 01:10:29;;;;;;;3.80;3.50;;;7.50;99.90;;;;;;4987468;28;20301;-70
2023/01/07 01:12:56;;;;;;;3.67;3.37;;;7.50;99.90;;;;;;4988043;28;20237;-70
2023/01/07 01:15:24;;;;;;;4.00;3.80;;;7.50;99.90;;;;;;4987218;28;20325;-70
2023/01/07 01:17:51;;;;;;;3.53;3.33;;;7.50;99.90;;;;;;4991054;28;20301;-70
2023/01/07 01:20:19;;;;;;;3.60;3.40;;;7.50;99.90;;;;;;4991406;28;20296;-70
2023/01/07 01:22:46;;;;;;;3.70;3.40;;;7.60;99.90;;;;;;4991382;28;20248;-70
2023/01/07 01:25:14;;;;;;;3.80;3.57;;;7.50;99.90;;;;;;4991278;28;20375;-70
2023/01/07 01:27:40;;;;;;;4.27;3.53;;;7.50;99.90;;;;;;4991311;28;20233;-70
2023/01/07 01:30:09;;;;;;;3.57;3.37;;;7.50;99.90;;;;;;4991211;28;20248;-69
2023/01/07 01:32:38;;;;;;;3.40;3.20;;;7.50;99.90;;;;;;4990747;28;20301;-70
2023/01/07 01:35:05;;;;;;;3.60;3.30;;;7.50;99.90;;;;;;4991328;28;20217;-70
2023/01/07 01:37:32;;;;;;;3.27;3.07;;;7.40;99.90;;;;;;4991086;28;20213;-69
2023/01/07 01:40:02;;;;;;;3.50;3.30;;;7.40;99.90;;;;;;4982031;28;20245;-71
2023/01/07 01:42:30;;;;;;;3.30;3.10;;;7.40;99.90;;;;;;4990961;28;20230;-71
2023/01/07 01:44:59;;;;;;;3.10;2.83;;;7.40;99.90;;;;;;4991460;28;20589;-71
2023/01/07 01:47:34;;;;;;;3.40;3.10;;;7.30;99.90;;;;;;4972682;28;20314;-71
2023/01/07 01:50:08;;;;;;;3.23;2.90;;;7.30;99.90;;;;;;4971738;28;20238;-71
2023/01/07 01:52:39;;;;;;;2.87;2.77;;;7.30;99.90;;;;;;4986213;28;20277;-71
2023/01/07 01:55:08;;;;;;;3.40;3.10;;;7.30;99.90;;;;;;4990801;28;20288;-71
2023/01/07 01:57:38;;;;;;;3.03;2.83;;;7.30;99.90;;;;;;4971450;28;20250;-71
2023/01/07 02:00:07;;;;;;;3.10;2.90;;;7.40;99.90;;;;;;4978423;28;20210;-71
2023/01/07 02:02:40;;;;;;;3.00;2.80;;;7.40;99.90;;;;;;4990486;28;20238;-71
2023/01/07 02:05:09;;;;;;;3.20;3.00;;;7.50;99.90;;;;;;4990449;28;20294;-71
2023/01/07 02:07:36;;;;;;;3.40;3.20;;;7.50;99.90;;;;;;4991024;28;20855;-71
2023/01/07 02:10:11;;;;;;;3.27;3.07;;;7.50;99.90;;;;;;4990727;28;20301;-71
2023/01/07 02:12:47;;;;;;;3.50;3.30;;;7.50;99.90;;;;;;4991042;28;20234;-71
2023/01/07 02:15:16;;;;;;;3.00;2.80;;;7.50;99.90;;;;;;4988704;28;20655;-71
2023/01/07 02:17:59;;;;;;;3.33;3.03;;;7.50;99.90;;;;;;4990273;28;20222;-71
2023/01/07 02:20:44;;;;;;;3.80;3.50;;;7.50;99.90;;;;;;4990335;28;20657;-71
2023/01/07 02:23:40;;;;;;;3.40;2.83;;;7.50;99.90;;;;;;4990187;28;20317;-71
2023/01/07 02:27:00;;;;;;;3.40;3.20;;;7.50;99.90;;;;;;4945731;28;20630;-71
2023/01/07 02:29:57;;;;;;;3.10;2.90;;;7.40;99.90;;;;;;4970080;28;20199;-71
2023/01/07 02:32:44;;;;;;;4.20;3.40;;;7.40;99.90;;;;;;4970312;28;20195;-70
2023/01/07 02:35:23;;;;;;;3.67;3.43;;;7.40;99.90;;;;;;4978227;28;20244;-71
2023/01/07 02:37:57;;;;;;;3.40;3.10;;;7.30;99.90;;;;;;4989919;28;20224;-71
2023/01/07 02:40:30;;;;;;;4.27;3.70;;;7.30;99.90;;;;;;4990023;28;20229;-71
2023/01/07 02:43:07;;;;;;;3.63;3.40;;;7.30;99.90;;;;;;4989869;28;20325;-71
2023/01/07 02:45:43;;;;;;;3.30;3.10;;;7.20;99.90;;;;;;4987115;28;20214;-70
2023/01/07 02:48:14;;;;;;;3.40;3.20;;;7.30;99.90;;;;;;4969977;28;20195;-70
2023/01/07 02:50:40;;;;;;;3.60;3.30;;;7.30;99.90;;;;;;4981457;28;20191;-71
2023/01/07 02:53:10;;;;;;;4.17;3.17;;;7.30;99.90;;;;;;4989536;28;20301;-70
2023/01/07 02:55:46;;;;;;;3.90;3.47;;;7.30;99.90;;;;;;4989819;28;20212;-70
2023/01/07 02:58:37;;;;;;;3.67;3.37;;;7.40;99.90;;;;;;4989631;28;20713;-70
2023/01/07 03:01:25;;;;;;;3.70;3.50;;;7.40;99.90;;;;;;4980827;28;20589;-69
2023/01/07 03:04:09;;;;;;;3.77;3.47;;;7.40;99.90;;;;;;4989268;28;20297;-70
2023/01/07 03:06:53;;;;;;;3.57;3.27;;;7.40;99.90;;;;;;4989470;28;20293;-71
2023/01/07 03:09:30;;;;;;;4.70;3.70;;;7.40;99.90;;;;;;4989891;28;20217;-71
2023/01/07 03:12:06;;;;;;;4.30;3.70;;;7.30;99.90;;;;;;4989252;28;20353;-71
2023/01/07 03:14:39;;;;;;;3.87;3.67;;;7.20;99.90;;;;;;4989358;28;20293;-71
2023/01/07 03:17:10;;;;;;;3.83;3.63;;;7.30;99.90;;;;;;4989549;28;20305;-71
2023/01/07 03:19:41;;;;;;;5.53;3.70;;;7.30;99.90;;;;;;4982673;28;20480;-70
2023/01/07 03:22:10;;;;;;;4.07;3.77;;;7.20;99.90;;;;;;4989338;28;20316;-70
2023/01/07 03:24:38;;;;;;;4.53;4.20;;;7.20;99.90;;;;;;4989197;28;20285;-70
2023/01/07 03:27:08;;;;;;;4.43;4.03;;;7.20;99.90;;;;;;4988939;28;20214;-70
2023/01/07 03:29:35;;;;;;;4.60;4.20;;;7.30;99.90;;;;;;4989109;28;20202;-70
2023/01/07 03:32:07;;;;;;;4.63;4.33;;;7.30;99.90;;;;;;4988870;28;20210;-70
2023/01/07 03:34:37;;;;;;;5.30;4.30;;;7.40;99.90;;;;;;4989173;28;20281;-70
2023/01/07 03:37:09;;;;;;;4.60;4.30;;;7.40;99.90;;;;;;4988608;28;20233;-70
2023/01/07 03:39:39;;;;;;;4.33;4.03;;;7.40;99.90;;;;;;4988768;28;20285;-70
2023/01/07 03:44:51;;;;;;;4.70;4.30;;;7.40;99.90;;;;;;4988620;28;20692;-70
2023/01/07 03:47:18;;;;;;;5.07;4.67;;;7.40;99.90;;;;;;4971245;28;20306;-70
2023/01/07 03:49:45;;;;;;;5.67;5.00;;;7.40;99.90;;;;;;4985870;28;20698;-70
2023/01/07 03:52:13;;;;;;;5.53;5.13;;;7.40;99.90;;;;;;4988577;28;20673;-70
2023/01/07 03:54:40;;;;;;;6.07;5.17;;;7.40;99.90;;;;;;4988863;28;20297;-70
2023/01/07 03:57:07;;;;;;;6.60;5.70;;;7.40;99.90;;;;;;4988358;28;20296;-70
2023/01/07 03:59:34;;;;;;;6.37;5.87;;;7.40;99.90;;;;;;4988766;28;20411;-70
2023/01/07 04:02:01;;;;;;;6.27;5.77;;;7.40;99.90;;;;;;4988199;28;20317;-70
2023/01/07 04:04:28;;;;;;;6.97;6.37;;;7.30;99.90;;;;;;4988502;28;20234;-70
2023/01/07 04:06:55;;;;;;;6.20;5.70;;;7.30;99.90;;;;;;4988549;28;20289;-70
2023/01/07 04:09:23;;;;;;;7.03;6.43;;;7.30;99.90;;;;;;4988391;28;20240;-70
2023/01/07 04:11:50;;;;;;;7.13;6.53;;;7.30;99.90;;;;;;4988586;28;20220;-70
2023/01/07 04:14:17;;;;;;;7.30;6.70;;;7.20;99.90;;;;;;4988152;28;20292;-70
2023/01/07 04:16:43;;;;;;;7.90;7.10;;;7.30;99.90;;;;;;4987684;28;20344;-70
2023/01/07 04:19:10;;;;;;;7.83;7.23;;;7.30;99.90;;;;;;4987779;28;20241;-70
2023/01/07 04:21:37;;;;;;;7.97;7.27;;;7.30;99.90;;;;;;4988220;28;20213;-70
2023/01/07 04:24:05;;;;;;;8.17;7.37;;;7.30;99.90;;;;;;4987950;28;20309;-70
2023/01/07 04:26:33;;;;;;;8.63;7.83;;;7.30;99.90;;;;;;4988456;28;20206;-69
2023/01/07 04:29:00;;;;;;;7.00;6.40;;;7.30;99.90;;;;;;4987790;28;20638;-71
2023/01/07 04:31:27;;;;;;;9.77;8.00;;;7.30;99.90;;;;;;4987994;28;20693;-70
2023/01/07 04:33:54;;;;;;;8.13;7.33;;;7.30;99.90;;;;;;4987992;28;20209;-71
2023/01/07 04:36:21;;;;;;;8.50;7.67;;;7.30;99.90;;;;;;4987527;28;20214;-70
2023/01/07 04:38:48;;;;;;;9.13;8.17;;;7.30;99.90;;;;;;4988164;28;20309;-71
2023/01/07 04:41:15;;;;;;;8.87;7.97;;;7.30;99.90;;;;;;4987445;28;20260;-70
2023/01/07 04:43:43;;;;;;;8.63;7.83;;;7.30;99.90;;;;;;4987944;28;20707;-71
2023/01/07 04:46:10;;;;;;;9.00;8.20;;;7.30;99.90;;;;;;4987900;28;20226;-70
2023/01/07 04:48:37;;;;;;;9.97;8.23;;;7.30;99.90;;;;;;4981473;28;20207;-70
2023/01/07 04:51:04;;;;;;;8.87;7.97;;;7.30;99.90;;;;;;4969697;28;20215;-70
2023/01/07 04:53:31;;;;;;;10.03;8.17;;;7.40;99.90;;;;;;4972639;28;20242;-70
2023/01/07 04:55:58;;;;;;;8.90;8.00;;;7.40;99.90;;;;;;4986733;28;20201;-70
2023/01/07 04:58:27;;;;;;;9.50;8.60;;;7.40;99.90;;;;;;5011385;28;20743;-70
2023/01/07 05:00:57;;;;;;;9.10;8.20;;;7.40;99.90;;;;;;5005382;28;20233;-70
2023/01/07 05:03:24;;;;;;;9.03;8.23;;;7.40;99.90;;;;;;4991602;28;20260;-70
2023/01/07 05:05:54;;;;;;;9.43;8.17;;;7.50;99.90;;;;;;4991826;28;20229;-70
2023/01/07 05:08:26;;;;;;;8.70;7.90;;;7.50;99.90;;;;;;4992125;28;20288;-70
2023/01/07 05:10:53;;;;;;;9.27;8.37;;;7.50;99.90;;;;;;4990907;28;20277;-70
2023/01/07 05:13:24;;;;;;;9.23;8.40;;;7.50;99.90;;;;;;4991017;28;20308;-70
2023/01/07 05:15:51;;;;;;;8.53;7.73;;;7.50;99.90;;;;;;4986057;28;20333;-70
2023/01/07 05:18:20;;;;;;;8.73;8.03;;;7.50;99.90;;;;;;4971937;28;20256;-71
2023/01/07 05:20:47;;;;;;;9.47;8.57;;;7.50;99.90;;;;;;4972171;28;20217;-70
2023/01/07 05:23:14;;;;;;;8.63;7.83;;;7.50;99.90;;;;;;4987085;28;20776;-70
2023/01/07 05:25:42;;;;;;;8.63;7.93;;;7.60;99.90;;;;;;4991586;28;20241;-71
2023/01/07 05:28:10;;;;;;;9.60;8.70;;;7.60;99.90;;;;;;4991556;28;20296;-71
2023/01/07 05:30:38;;;;;;;9.77;8.97;;;7.60;99.90;;;;;;4991915;28;20213;-72
2023/01/07 05:33:06;;;;;;;9.90;8.27;;;7.60;99.90;;;;;;4991288;28;20214;-72
2023/01/07 05:35:34;;;;;;;9.07;8.17;;;7.60;99.90;;;;;;4991685;28;20269;-71
2023/01/07 05:38:01;;;;;;;8.80;8.10;;;7.60;99.90;;;;;;4991374;28;20289;-72
2023/01/07 05:40:28;;;;;;;9.30;8.40;;;7.60;99.90;;;;;;4991510;28;20293;-72
2023/01/07 05:42:55;;;;;;;9.17;8.27;;;7.60;99.90;;;;;;4991178;28;20241;-71
2023/01/07 05:45:22;;;;;;;8.83;8.03;;;7.60;99.90;;;;;;4989502;28;20253;-71
2023/01/07 05:47:49;;;;;;;9.23;7.67;;;7.60;99.90;;;;;;4971356;28;20247;-72
2023/01/07 05:50:16;;;;;;;8.80;8.00;;;7.60;99.90;;;;;;4990436;28;20305;-71
2023/01/07 05:52:44;;;;;;;8.77;8.00;;;7.60;99.90;;;;;;4991287;28;20293;-71
2023/01/07 05:55:11;;;;;;;8.87;7.70;;;7.60;99.90;;;;;;4991115;28;20212;-71
2023/01/07 05:57:38;;;;;;;8.10;7.30;;;7.60;99.90;;;;;;4991105;28;20280;-71
2023/01/07 06:00:06;;;;;;;8.43;7.63;;;7.60;99.90;;;;;;4990625;28;20341;-71
2023/01/07 06:02:33;;;;;;;7.97;7.33;;;7.60;99.90;;;;;;4990338;28;20667;-71
2023/01/07 06:05:00;;;;;;;8.40;7.60;;;7.60;99.90;;;;;;4990660;28;20665;-70
2023/01/07 06:07:27;;;;;;;8.23;7.47;;;7.60;99.90;;;;;;4990677;28;20209;-71
2023/01/07 06:09:55;;;;;;;8.57;7.77;;;7.60;99.90;;;;;;4990686;28;20305;-71
2023/01/07 06:12:22;;;;;;;7.80;7.20;;;7.60;99.90;;;;;;4990412;28;20915;-71
2023/01/07 06:14:49;;;;;;;8.10;7.50;;;7.50;99.90;;;;;;4990717;28;20241;-71
2023/01/07 06:17:16;;;;;;;8.60;7.80;;;7.60;99.90;;;;;;4990112;28;20248;-71
2023/01/07 06:19:42;;;;;;;7.90;7.20;;;7.60;99.90;;;;;;4990112;28;20654;-70
2023/01/07 06:22:09;;;;;;;8.13;7.43;;;7.60;99.90;;;;;;4990008;28;20396;-71
2023/01/07 06:24:36;;;;;;;7.57;6.87;;;7.60;99.90;;;;;;4990591;28;20234;-71
2023/01/07 06:27:05;;;;;;;8.33;7.57;;;7.60;99.90;;;;;;4990294;28;20313;-71
2023/01/07 06:29:31;;;;;;;7.77;7.17;;;7.60;99.90;;;;;;4990232;28;20301;-71
2023/01/07 06:31:58;;;;;;;8.20;7.50;;;7.60;99.90;;;;;;4990286;28;20228;-71
2023/01/07 06:34:25;;;;;;;8.63;7.83;;;7.70;99.90;;;;;;4989822;28;20233;-71
2023/01/07 06:36:52;;;;;;;8.03;7.23;;;7.70;99.90;;;;;;4990013;28;20212;-70
2023/01/07 06:39:19;;;;;;;8.07;7.33;;;7.70;99.90;;;;;;4989832;28;20210;-70
2023/01/07 06:41:46;;;;;;;7.33;6.77;;;7.70;99.90;;;;;;4989738;28;20301;-70
2023/01/07 06:44:14;;;;;;;8.10;7.40;;;7.70;99.90;;;;;;4989849;28;20234;-70
2023/01/07 06:46:41;;;;;;;8.17;7.47;;;7.70;99.90;;;;;;4989528;28;20210;-70
2023/01/07 06:49:08;;;;;;;7.67;6.97;;;7.70;99.90;;;;;;4989549;28;20297;-70
2023/01/07 06:51:35;;;;;;;7.47;6.87;;;7.70;99.90;;;;;;4989928;28;20272;-70
2023/01/07 06:54:02;;;;;;;7.73;7.03;;;7.70;99.90;;;;;;4990158;28;20300;-70
2023/01/07 06:56:28;;;;;;;7.27;6.67;;;7.60;99.90;;;;;;4979035;28;20203;-70
2023/01/07 06:58:55;;;;;;;8.23;6.87;;;7.60;99.90;;;;;;4989725;28;20301;-70
2023/01/07 07:01:24;;;;;;;8.10;7.30;;;7.60;99.90;;;;;;4989720;28;20329;-70
2023/01/07 07:03:50;;;;;;;7.60;6.80;;;7.60;99.90;;;;;;4989406;28;20313;-69
2023/01/07 07:06:17;;;;;;;7.40;6.77;;;7.60;99.90;;;;;;4989025;28;20764;-70
2023/01/07 07:08:44;;;;;;;7.43;6.83;;;7.70;99.90;;;;;;4989756;28;20293;-70
2023/01/07 07:11:11;;;;;;;7.50;6.90;;;7.60;99.90;;;;;;4989278;28;20309;-72
2023/01/07 07:13:38;;;;;;;7.80;7.10;;;7.70;99.90;;;;;;4988911;28;20293;-72
2023/01/07 07:16:05;;;;;;;7.17;6.57;;;7.70;99.90;;;;;;4988911;28;20320;-72
2023/01/07 07:18:34;;;;;;;8.10;6.87;;;7.70;99.90;;;;;;4988869;28;20321;-72
2023/01/07 07:21:01;;;;;;;7.37;6.77;;;7.70;99.90;;;;;;4989604;28;20206;-72
2023/01/07 07:23:27;;;;;;;7.40;6.80;;;7.70;99.90;;;;;;5006128;28;20233;-71
2023/01/07 07:25:54;;;;;;;7.10;6.50;;;7.70;99.90;;;;;;5009069;28;20572;-71
2023/01/07 07:28:21;;;;;;;7.07;6.50;;;7.70;99.90;;;;;;4995120;28;20256;-71
2023/01/07 07:30:48;;;;;;;6.80;6.30;;;7.70;99.90;;;;;;4989107;28;20309;-71
2023/01/07 07:33:17;;;;;;;7.33;6.63;;;7.80;99.90;;;;;;4988178;28;20691;-71
2023/01/07 07:35:46;;;;;;;6.97;6.40;;;7.80;99.90;;;;;;4989042;28;20210;-71
2023/01/07 07:38:13;;;;;;;7.10;6.50;;;7.80;99.90;;;;;;4988903;28;20301;-71
2023/01/07 07:40:40;;;;;;;7.00;6.30;;;7.80;99.90;;;;;;4989144;28;20253;-71
2023/01/07 07:43:07;;;;;;;7.23;5.87;;;7.80;99.90;;;;;;4988424;28;20666;-71
2023/01/07 07:45:34;;;;;;;7.07;6.37;;;7.80;99.90;;;;;;4985896;28;20257;-71
2023/01/07 07:48:01;;;;;;;6.40;5.90;;;7.80;99.90;;;;;;4969094;28;20233;-71
2023/01/07 07:50:28;;;;;;;6.40;5.90;;;7.80;99.90;;;;;;4969317;28;20977;-72
2023/01/07 07:52:56;;;;;;;6.60;6.00;;;7.80;99.90;;;;;;4972686;28;20591;-71
2023/01/07 07:55:23;;;;;;;6.27;5.77;;;7.80;99.90;;;;;;4988338;28;20632;-71
2023/01/07 07:57:52;;;;;;;6.53;5.87;;;7.80;99.90;;;;;;4988849;28;20313;-71
2023/01/07 08:00:19;;;;;;;6.33;5.73;;;7.80;99.90;;;;;;4988510;28;20210;-71
2023/01/07 08:02:46;;;;;;;5.73;5.33;;;7.80;99.90;;;;;;4988282;28;20246;-71
2023/01/07 08:05:13;;;;;;;6.70;6.10;;;7.80;99.90;;;;;;4988534;28;20203;-71
2023/01/07 08:07:40;;;;;;;5.97;5.57;;;7.80;99.90;;;;;;4988283;28;20202;-71
2023/01/07 08:10:09;;;;;;;7.17;5.80;;;7.80;99.90;;;;;;4988343;28;20304;-71
2023/01/07 08:12:37;;;;;;;5.83;5.43;;;7.90;99.90;;;;;;4988692;28;20285;-71
2023/01/07 08:15:05;;;;;;;5.87;5.30;;;7.90;99.90;;;;;;4988364;28;20633;-71
2023/01/07 08:17:32;;;;;;;5.87;5.27;;;7.90;99.90;;;;;;4988034;28;20208;-71
2023/01/07 08:19:59;;;;;;;5.87;5.37;;;7.90;99.90;;;;;;4988557;28;20205;-71
2023/01/07 08:22:26;;;;;;;5.87;5.47;;;7.90;99.90;;;;;;4988154;28;20234;-71
2023/01/07 08:24:53;;;;;;;5.23;4.87;;;7.90;99.90;;;;;;4988303;28;20234;-71
2023/01/07 08:27:21;;;;;;;5.43;5.03;;;7.90;99.90;;;;;;4988118;28;20305;-71
2023/01/07 08:29:48;;;;;;;5.77;5.27;;;7.90;99.90;;;;;;4987856;28;20717;-71
2023/01/07 08:32:15;;;;;;;5.70;5.20;;;7.90;99.90;;;;;;4987738;28;20202;-71
2023/01/07 08:34:42;;;;;;;6.33;5.73;;;7.90;99.90;;;;;;4987870;28;20670;-71
2023/01/07 08:37:12;;;;;;;5.60;5.10;;;7.90;99.90;;;;;;4988272;28;20206;-71
2023/01/07 08:39:39;;;;;;;5.43;5.03;;;7.90;99.90;;;;;;4988236;28;20214;-71
2023/01/07 08:42:06;;;;;;;6.03;5.13;;;7.90;99.90;;;;;;4987950;28;20206;-71
2023/01/07 08:44:34;;;;;;;4.93;4.57;;;7.90;99.90;;;;;;4988065;28;20266;-71
2023/01/07 08:47:01;;;;;;;5.23;4.73;;;7.90;99.90;;;;;;4987607;28;20217;-71
2023/01/07 08:49:28;;;;;;;4.80;4.40;;;7.90;99.90;;;;;;4987273;28;20328;-71
2023/01/07 08:51:57;;;;;;;5.27;4.87;;;8.00;99.90;;;;;;4987855;28;20297;-71
2023/01/07 08:54:24;;;;;;;4.60;4.30;;;8.00;99.90;;;;;;4987641;28;20202;-71
2023/01/07 08:56:51;;;;;;;4.77;4.37;;;8.00;99.90;;;;;;4987311;28;20301;-71
2023/01/07 08:59:17;;;;;;;5.03;4.73;;;8.00;99.90;;;;;;4988202;28;20744;-71
2023/01/07 09:01:46;;;;;;;5.77;4.63;;;8.00;99.90;;;;;;4988343;28;20249;-71
2023/01/07 09:04:13;;;;;;;4.47;4.17;;;8.00;99.90;;;;;;4987395;28;20334;-70
2023/01/07 09:06:39;;;;;;;4.40;4.10;;;8.00;99.90;;;;;;4987932;28;20248;-70
2023/01/07 09:09:06;;;;;;;4.60;4.20;;;8.00;99.90;;;;;;4987799;28;20647;-70
2023/01/07 09:11:33;;;;;;;4.23;3.90;;;8.00;99.90;;;;;;4988085;28;20751;-70
2023/01/07 09:14:00;;;;;;;5.03;4.20;;;8.00;99.90;;;;;;4987974;28;20252;-70
2023/01/07 09:16:27;;;;;;;4.10;3.80;;;8.00;99.90;;;;;;4986927;28;20301;-70
2023/01/07 09:18:55;;;;;;;4.87;4.50;;;8.00;99.90;;;;;;4987048;28;20238;-70
2023/01/07 09:21:23;;;;;;;4.10;3.80;;;8.00;99.90;;;;;;4987805;28;20210;-71
2023/01/07 09:23:50;;;;;;;4.20;3.90;;;8.00;99.90;;;;;;4987774;28;20265;-71
2023/01/07 09:26:17;;;;;;;3.97;3.67;;;8.10;99.90;;;;;;4987696;28;20234;-71
2023/01/07 09:28:44;;;;;;;4.13;3.90;;;8.10;99.90;;;;;;4987588;28;20716;-71
2023/01/07 09:31:11;;;;;;;3.93;3.73;;;8.10;99.90;;;;;;4987214;28;20290;-71
2023/01/07 09:33:39;;;;;;;3.87;3.63;;;8.10;99.90;;;;;;4987314;28;20213;-71
2023/01/07 09:36:08;;;;;;;3.77;3.53;;;8.20;99.90;;;;;;4987514;28;20211;-71
2023/01/07 09:38:35;;;;;;;3.90;3.60;;;8.20;99.90;;;;;;4990354;28;20281;-71
2023/01/07 09:41:02;;;;;;;4.03;3.73;;;8.20;99.90;;;;;;4991118;28;20205;-71
2023/01/07 09:43:35;;;;;;;3.80;3.50;;;8.20;99.90;;;;;;4989927;28;20261;-71
2023/01/07 09:46:07;;;;;;;3.90;3.70;;;8.20;99.90;;;;;;4991213;28;20209;-71
2023/01/07 09:48:38;;;;;;;3.90;3.60;;;8.20;99.90;;;;;;4991071;28;20245;-72
2023/01/07 09:51:12;;;;;;;4.30;3.90;;;8.20;99.90;;;;;;4991141;28;20277;-72
2023/01/07 09:53:41;;;;;;;4.00;3.70;;;8.30;99.90;;;;;;4990126;28;20931;-72
2023/01/07 09:56:19;;;;;;;3.80;3.50;;;8.30;99.90;;;;;;4991058;28;20292;-71
2023/01/07 09:58:48;;;;;;;3.60;3.30;;;8.40;99.90;;;;;;4990652;28;20288;-71
2023/01/07 10:01:27;;;;;;;3.70;3.50;;;8.40;99.90;;;;;;4990957;28;20210;-71
2023/01/07 10:04:06;;;;;;;4.40;4.00;;;8.40;99.90;;;;;;4990708;28;20249;-71
2023/01/07 10:06:45;;;;;;;3.50;3.30;;;8.40;99.90;;;;;;4984046;28;20194;-71
2023/01/07 10:09:25;;;;;;;3.37;3.07;;;8.40;99.90;;;;;;4990731;28;20288;-71
2023/01/07 10:12:01;;;;;;;3.23;3.03;;;8.40;99.90;;;;;;4990948;28;20190;-71
2023/01/07 10:14:48;;;;;;;3.67;3.23;;;8.50;99.90;;;;;;4990460;28;20205;-71
2023/01/07 10:17:25;;;;;;;3.23;2.83;;;8.50;99.90;;;;;;4990588;28;20304;-71
2023/01/07 10:20:00;;;;;;;2.50;2.40;;;8.50;99.90;;;;;;4990363;28;20740;-71
2023/01/07 10:22:33;;;;;;;3.00;2.80;;;8.50;99.90;;;;;;4990531;28;20201;-71
2023/01/07 10:25:04;;;;;;;2.97;2.77;;;8.50;99.90;;;;;;4990187;28;20324;-71
2023/01/07 10:27:34;;;;;;;3.03;2.80;;;8.60;99.90;;;;;;4990167;28;20202;-71
2023/01/07 10:30:04;;;;;;;3.33;2.90;;;8.60;99.90;;;;;;4990328;28;20668;-72
2023/01/07 10:32:35;;;;;;;4.37;2.67;;;8.70;99.90;;;;;;4990286;28;20240;-72
2023/01/07 10:35:03;;;;;;;2.50;2.40;;;8.80;99.90;;;;;;4990360;28;20241;-71
2023/01/07 10:37:33;;;;;;;2.80;2.60;;;8.80;99.90;;;;;;4990082;28;20268;-71
2023/01/07 10:40:18;;;;;;;4.30;4.00;;;8.80;99.90;;;;;;4989954;28;20201;-71
2023/01/07 10:42:54;;;;;;;3.00;2.80;;;8.80;99.90;;;;;;4982021;28;20665;-71
2023/01/07 10:45:45;;;;;;;3.60;2.63;;;8.80;99.90;;;;;;4989903;28;20316;-71
2023/01/07 10:48:36;;;;;;;2.23;2.13;;;8.80;99.90;;;;;;4988781;28;20218;-70
2023/01/07 10:51:28;;;;;;;2.87;2.67;;;8.80;99.90;;;;;;4987083;28;20269;-69
2023/01/07 10:54:02;;;;;;;2.30;2.20;;;8.80;99.90;;;;;;4988142;28;20202;-69
2023/01/07 10:56:33;;;;;;;2.27;2.17;;;8.80;99.90;;;;;;4977455;28;20792;-70
2023/01/07 10:59:00;;;;;;;2.30;2.20;;;8.80;99.90;;;;;;4969527;28;20717;-69
2023/01/07 11:01:32;;;;;;;2.40;2.30;;;8.80;99.90;;;;;;4987534;28;20714;-69
2023/01/07 11:04:01;;;;;;;2.40;2.20;;;8.80;99.90;;;;;;4986917;28;20245;-69
2023/01/07 11:06:37;;;;;;;2.30;2.20;;;8.80;99.90;;;;;;4987319;28;20328;-69
2023/01/07 11:09:09;;;;;;;2.30;2.20;;;8.80;99.90;;;;;;4987774;28;20285;-70
2023/01/07 11:11:37;;;;;;;2.60;2.40;;;8.80;99.90;;;;;;4987836;28;20201;-70
2023/01/07 11:14:10;;;;;;;2.13;2.03;;;8.90;99.90;;;;;;4987589;28;20581;-70
2023/01/07 11:16:42;;;;;;;2.50;2.10;;;8.90;99.90;;;;;;4984834;28;20325;-70
2023/01/07 11:19:11;;;;;;;2.10;2.00;;;8.90;99.90;;;;;;4987206;28;20210;-70
2023/01/07 11:21:40;;;;;;;2.00;1.90;;;9.00;99.90;;;;;;4987025;28;20281;-70
2023/01/07 11:24:30;;;;;;;2.07;1.97;;;9.00;99.90;;;;;;4986832;28;20681;-70
2023/01/07 11:27:03;;;;;;;2.20;2.10;;;9.10;99.90;;;;;;4987488;28;20206;-69
2023/01/07 11:29:36;;;;;;;2.83;2.73;;;9.10;99.90;;;;;;4986299;28;20301;-69
2023/01/07 11:32:04;;;;;;;2.60;2.50;;;9.20;99.90;;;;;;4987351;28;20306;-69
2023/01/07 11:34:35;;;;;;;2.27;2.07;;;9.20;99.90;;;;;;4986587;28;20216;-69
2023/01/07 11:37:03;;;;;;;1.90;1.80;;;9.30;99.90;;;;;;4986969;28;20289;-69
2023/01/07 11:39:33;;;;;;;1.80;1.70;;;9.30;99.90;;;;;;4986537;28;20633;-69
2023/01/07 11:42:37;;;;;;;2.03;1.93;;;9.30;99.90;;;;;;4970595;28;20643;-69
2023/01/07 11:45:07;;;;;;;1.90;1.80;;;9.40;99.90;;;;;;4986771;28;20249;-69
2023/01/07 11:47:34;;;;;;;1.90;1.80;;;9.40;99.90;;;;;;4986604;28;20305;-69
2023/01/07 11:50:01;;;;;;;1.80;1.70;;;9.30;99.90;;;;;;4987490;28;20297;-70
2023/01/07 11:52:28;;;;;;;1.87;1.77;;;9.30;99.90;;;;;;4987102;28;20210;-69
2023/01/07 11:54:57;;;;;;;1.50;1.40;;;9.30;99.90;;;;;;4986766;28;20234;-69
2023/01/07 11:57:25;;;;;;;1.87;1.77;;;9.20;99.90;;;;;;4986812;28;20222;-70
2023/01/07 12:00:11;;;;;;;3.30;3.10;;;9.20;99.90;;;;;;4986687;28;20582;-70
2023/01/07 12:02:38;;;;;;;2.53;2.43;;;9.20;99.90;;;;;;4986302;28;20712;-70
2023/01/07 12:05:21;;;;;;;1.87;1.77;;;9.30;99.90;;;;;;4985571;28;20678;-69
2023/01/07 12:07:50;;;;;;;1.60;1.60;;;9.30;99.90;;;;;;4975683;28;20245;-69
2023/01/07 12:10:31;;;;;;;1.57;1.50;;;9.20;99.90;;;;;;4986644;28;20310;-69
2023/01/07 12:13:00;;;;;;;1.93;1.40;;;9.20;99.90;;;;;;4986261;28;20287;-69
2023/01/07 12:15:30;;;;;;;1.83;1.60;;;9.20;99.90;;;;;;4984293;28;20738;-69
2023/01/07 12:18:30;;;;;;;2.40;1.40;;;9.20;99.90;;;;;;4967135;28;20199;-69
2023/01/07 12:21:18;;;;;;;3.27;1.60;;;9.20;99.90;;;;;;4967089;28;20426;-69
2023/01/07 12:23:54;;;;;;;1.50;1.17;;;9.20;99.90;;;;;;4984682;28;20245;-69
2023/01/07 12:26:26;;;;;;;1.30;1.30;;;9.20;99.90;;;;;;4983737;28;20308;-69
2023/01/07 12:29:05;;;;;;;1.43;1.43;;;9.20;99.90;;;;;;4990696;28;20563;-69
2023/01/07 12:31:41;;;;;;;1.63;1.43;;;9.20;99.90;;;;;;4986485;28;20194;-69
2023/01/07 12:34:19;;;;;;;1.90;1.37;;;9.20;99.90;;;;;;4985935;28;20297;-69
2023/01/07 12:36:52;;;;;;;1.20;1.20;;;9.20;99.90;;;;;;4986253;28;20202;-69
2023/01/07 12:39:25;;;;;;;1.50;1.40;;;9.20;99.90;;;;;;4986324;28;20194;-70
2023/01/07 12:42:01;;;;;;;1.40;1.30;;;9.30;99.90;;;;;;4986313;28;20226;-69
2023/01/07 12:44:27;;;;;;;1.27;1.27;;;9.30;99.90;;;;;;4985556;28;20212;-69
2023/01/07 12:47:03;;;;;;;1.20;1.20;;;9.30;99.90;;;;;;4986049;28;20224;-69
2023/01/07 12:49:33;;;;;;;1.30;1.30;;;9.30;99.90;;;;;;4985882;28;20204;-69
2023/01/07 12:52:05;;;;;;;1.13;1.13;;;9.30;99.90;;;;;;4986122;28;20647;-69
2023/01/07 12:54:42;;;;;;;2.10;1.97;;;9.30;99.90;;;;;;4985432;28;20763;-69
2023/01/07 12:57:16;;;;;;;2.77;2.57;;;9.30;99.90;;;;;;4985128;28;20206;-69
2023/01/07 12:59:47;;;;;;;3.03;1.67;;;9.30;99.90;;;;;;4985927;28;20198;-69
2023/01/07 13:02:26;;;;;;;1.20;1.10;;;9.30;99.90;;;;;;4985861;28;20313;-70
2023/01/07 13:05:04;;;;;;;1.23;0.97;;;9.30;99.90;;;;;;4977765;28;20249;-69
2023/01/07 13:07:40;;;;;;;1.10;1.10;;;9.30;99.90;;;;;;4966668;28;20206;-69
2023/01/07 13:10:15;;;;;;;1.10;1.00;;;9.30;99.90;;;;;;4966634;28;20363;-69
2023/01/07 13:12:45;;;;;;;2.00;1.23;;;9.40;99.90;;;;;;4968377;28;20646;-69
2023/01/07 13:15:25;;;;;;;0.80;0.80;;;9.30;99.90;;;;;;4974458;28;20440;-69
2023/01/07 13:17:53;;;;;;;1.07;1.07;;;9.40;99.90;;;;;;4970139;28;20214;-69